createdAt,value
2018-11-04T00:01:36.541Z,7.52
2018-11-04T00:04:03.873Z,7.48
2018-11-04T00:06:31.171Z,7.47
2018-11-04T00:08:58.541Z,7.47
2018-11-04T00:11:25.804Z,7.48
2018-11-04T00:13:53.076Z,7.49
2018-11-04T00:16:20.344Z,7.43
2018-11-04T00:18:47.701Z,7.42
2018-11-04T00:21:14.904Z,7.44
2018-11-04T00:23:42.191Z,7.45
2018-11-04T00:26:09.498Z,7.45
2018-11-04T00:28:36.834Z,7.45
2018-11-04T00:31:04.215Z,7.44
2018-11-04T00:33:31.478Z,7.42
2018-11-04T00:35:58.715Z,7.40
2018-11-04T00:38:25.975Z,7.40
2018-11-04T00:40:53.254Z,7.39
2018-11-04T00:43:20.587Z,7.38
2018-11-04T00:45:47.863Z,7.35
2018-11-04T00:48:15.186Z,7.36
2018-11-04T00:50:42.460Z,7.37
2018-11-04T00:53:09.776Z,7.38
2018-11-04T00:55:41.836Z,7.41
2018-11-04T00:58:09.095Z,7.41
2018-11-04T01:00:37.049Z,7.40
2018-11-04T01:03:05.420Z,7.42
2018-11-04T01:05:32.649Z,7.44
2018-11-04T01:07:59.998Z,7.43
2018-11-04T01:10:27.251Z,7.43
2018-11-04T01:12:54.522Z,7.41
2018-11-04T01:15:21.862Z,7.40
2018-11-04T01:17:51.287Z,7.41
2018-11-04T01:23:08.509Z,7.40
2018-11-04T01:25:35.764Z,7.41
2018-11-04T01:28:03.097Z,7.41
2018-11-04T01:30:30.475Z,7.42
2018-11-04T01:32:57.721Z,7.39
2018-11-04T01:35:25.640Z,7.35
2018-11-04T01:37:52.851Z,7.35
2018-11-04T01:40:20.172Z,7.36
2018-11-04T01:42:47.416Z,7.39
2018-11-04T01:45:14.722Z,7.39
2018-11-04T01:47:42.005Z,7.40
2018-11-04T01:50:11.230Z,7.40
2018-11-04T01:52:38.567Z,7.39
2018-11-04T01:55:06.164Z,7.34
2018-11-04T01:57:33.458Z,7.31
2018-11-04T02:00:00.744Z,7.34
2018-11-04T02:02:28.014Z,7.36
2018-11-04T02:04:55.340Z,7.37
2018-11-04T02:07:23.312Z,7.38
2018-11-04T02:09:50.652Z,7.37
2018-11-04T02:12:18.029Z,7.39
2018-11-04T02:14:45.351Z,7.41
2018-11-04T02:17:12.607Z,7.41
2018-11-04T02:19:39.880Z,7.43
2018-11-04T02:22:07.177Z,7.43
2018-11-04T02:24:34.450Z,7.41
2018-11-04T02:27:01.712Z,7.36
2018-11-04T02:29:28.967Z,7.33
2018-11-04T02:31:56.279Z,7.33
2018-11-04T02:34:23.594Z,7.32
2018-11-04T02:36:51.527Z,7.31
2018-11-04T02:39:18.946Z,7.33
2018-11-04T02:41:46.223Z,7.35
2018-11-04T02:44:13.603Z,7.35
2018-11-04T02:46:40.908Z,7.31
2018-11-04T02:49:08.148Z,7.30
2018-11-04T02:51:36.042Z,7.27
2018-11-04T02:54:03.560Z,7.28
2018-11-04T02:56:30.917Z,7.28
2018-11-04T02:58:58.217Z,7.28
2018-11-04T03:01:25.640Z,7.29
2018-11-04T03:03:52.876Z,7.30
2018-11-04T03:06:20.804Z,7.32
2018-11-04T03:08:48.058Z,7.34
2018-11-04T03:11:15.468Z,7.34
2018-11-04T03:13:43.118Z,7.33
2018-11-04T03:16:10.449Z,7.34
2018-11-04T03:18:37.697Z,7.35
2018-11-04T03:21:05.816Z,7.36
2018-11-04T03:23:33.081Z,7.35
2018-11-04T03:26:00.351Z,7.37
2018-11-04T03:28:27.681Z,7.36
2018-11-04T03:30:54.982Z,7.37
2018-11-04T03:33:22.987Z,7.38
2018-11-04T03:35:50.336Z,7.37
2018-11-04T03:38:17.551Z,7.37
2018-11-04T03:40:44.855Z,7.35
2018-11-04T03:43:12.801Z,7.34
2018-11-04T03:45:40.044Z,7.37
2018-11-04T03:48:07.937Z,7.38
2018-11-04T03:50:35.184Z,7.38
2018-11-04T03:53:05.052Z,7.37
2018-11-04T03:55:32.694Z,7.37
2018-11-04T03:58:00.034Z,7.39
2018-11-04T04:00:27.426Z,7.39
2018-11-04T04:02:54.686Z,7.40
2018-11-04T04:05:22.015Z,7.38
2018-11-04T04:07:49.359Z,7.37
2018-11-04T04:10:16.609Z,7.36
2018-11-04T04:12:43.924Z,7.35
2018-11-04T04:15:11.516Z,7.34
2018-11-04T04:17:38.964Z,7.36
2018-11-04T04:20:06.577Z,7.37
2018-11-04T04:22:35.448Z,7.36
2018-11-04T04:25:03.805Z,7.33
2018-11-04T04:27:32.514Z,7.35
2018-11-04T04:29:59.865Z,7.37
2018-11-04T04:32:27.090Z,7.38
2018-11-04T04:34:54.432Z,7.38
2018-11-04T04:37:21.690Z,7.40
2018-11-04T04:39:48.888Z,7.38
2018-11-04T04:42:16.186Z,7.38
2018-11-04T04:44:43.441Z,7.38
2018-11-04T04:47:10.768Z,7.39
2018-11-04T04:49:38.071Z,7.39
2018-11-04T04:52:05.473Z,7.38
2018-11-04T04:54:32.735Z,7.37
2018-11-04T04:57:00.035Z,7.36
2018-11-04T04:59:27.331Z,7.38
2018-11-04T05:01:54.780Z,7.38
2018-11-04T05:04:22.015Z,7.34
2018-11-04T05:06:49.297Z,7.37
2018-11-04T05:09:16.569Z,7.37
2018-11-04T05:11:44.130Z,7.40
2018-11-04T05:14:11.402Z,7.40
2018-11-04T05:16:39.137Z,7.41
2018-11-04T05:19:06.576Z,7.43
2018-11-04T05:21:33.864Z,7.44
2018-11-04T05:24:01.140Z,7.45
2018-11-04T05:26:28.572Z,7.48
2018-11-04T05:28:55.872Z,7.48
2018-11-04T05:31:23.123Z,7.48
2018-11-04T05:33:50.425Z,7.48
2018-11-04T05:36:18.293Z,7.48
2018-11-04T05:38:45.560Z,7.50
2018-11-04T05:41:12.920Z,7.50
2018-11-04T05:43:40.171Z,7.50
2018-11-04T05:46:07.511Z,7.50
2018-11-04T05:48:34.815Z,7.50
2018-11-04T05:51:02.111Z,7.51
2018-11-04T05:53:29.494Z,7.49
2018-11-04T05:55:56.885Z,7.48
2018-11-04T05:58:24.803Z,7.50
2018-11-04T06:00:52.230Z,7.49
2018-11-04T06:03:20.666Z,7.50
2018-11-04T06:05:48.025Z,7.49
2018-11-04T06:08:15.388Z,7.49
2018-11-04T06:10:42.827Z,7.47
2018-11-04T06:13:10.796Z,7.48
2018-11-04T06:15:39.968Z,7.47
2018-11-04T06:18:07.411Z,7.44
2018-11-04T06:20:34.840Z,7.44
2018-11-04T06:25:36.182Z,7.48
2018-11-04T06:28:03.697Z,7.50
2018-11-04T06:30:31.251Z,7.50
2018-11-04T06:33:04.085Z,7.48
2018-11-04T06:35:31.541Z,7.48
2018-11-04T06:37:59.028Z,7.47
2018-11-04T06:40:26.370Z,7.46
2018-11-04T06:42:53.745Z,7.47
2018-11-04T06:45:21.247Z,7.47
2018-11-04T06:47:48.662Z,7.45
2018-11-04T06:50:17.481Z,7.47
2018-11-04T06:52:45.629Z,7.46
2018-11-04T06:55:14.609Z,7.48
2018-11-04T06:57:42.674Z,7.48
2018-11-04T07:00:11.684Z,7.48
2018-11-04T07:02:40.378Z,7.49
2018-11-04T07:05:08.020Z,7.48
2018-11-04T07:07:36.181Z,7.51
2018-11-04T07:10:04.943Z,7.56
2018-11-04T07:12:32.523Z,7.60
2018-11-04T07:15:00.915Z,7.59
2018-11-04T07:17:28.396Z,7.61
2018-11-04T07:19:55.920Z,7.61
2018-11-04T07:22:23.400Z,7.65
2018-11-04T07:24:50.848Z,7.63
2018-11-04T07:27:20.130Z,7.63
2018-11-04T07:29:48.319Z,7.65
2018-11-04T07:32:16.353Z,7.69
2018-11-04T07:34:43.772Z,7.71
2018-11-04T07:37:11.330Z,7.72
2018-11-04T07:39:39.451Z,7.75
2018-11-04T07:42:07.008Z,7.76
2018-11-04T07:44:35.200Z,7.74
2018-11-04T07:47:03.678Z,7.74
2018-11-04T07:49:31.067Z,7.77
2018-11-04T07:51:59.156Z,7.78
2018-11-04T07:54:27.209Z,7.76
2018-11-04T07:56:55.559Z,7.75
2018-11-04T07:59:23.174Z,7.76
2018-11-04T08:01:52.466Z,7.77
2018-11-04T08:04:21.260Z,7.78
2018-11-04T08:06:49.360Z,7.79
2018-11-04T08:09:17.060Z,7.78
2018-11-04T08:11:44.958Z,7.79
2018-11-04T08:14:12.707Z,7.84
2018-11-04T08:16:40.222Z,7.86
2018-11-04T08:19:08.447Z,7.89
2018-11-04T08:21:36.075Z,7.91
2018-11-04T08:24:03.995Z,7.91
2018-11-04T08:26:32.995Z,7.90
2018-11-04T08:29:01.471Z,7.93
2018-11-04T08:31:29.228Z,7.97
2018-11-04T08:33:56.754Z,8.02
2018-11-04T08:36:24.272Z,8.07
2018-11-04T08:38:53.162Z,8.10
2018-11-04T08:41:21.133Z,8.13
2018-11-04T08:43:49.144Z,8.11
2018-11-04T08:46:18.276Z,8.14
2018-11-04T08:48:46.488Z,8.18
2018-11-04T08:51:14.007Z,8.23
2018-11-04T08:53:42.308Z,8.24
2018-11-04T08:56:21.734Z,8.22
2018-11-04T08:58:52.791Z,8.24
2018-11-04T09:01:20.672Z,8.31
2018-11-04T09:03:48.215Z,8.33
2018-11-04T09:06:16.195Z,8.39
2018-11-04T09:08:55.236Z,8.40
2018-11-04T09:11:29.090Z,8.46
2018-11-04T09:13:57.408Z,8.52
2018-11-04T09:16:24.798Z,8.56
2018-11-04T09:18:52.393Z,8.59
2018-11-04T09:21:20.155Z,8.58
2018-11-04T09:23:47.641Z,8.60
2018-11-04T09:26:15.796Z,8.62
2018-11-04T09:28:43.129Z,8.62
2018-11-04T09:31:10.943Z,8.61
2018-11-04T09:33:40.853Z,8.64
2018-11-04T09:36:08.336Z,8.63
2018-11-04T09:38:37.180Z,8.66
2018-11-04T09:41:04.699Z,8.69
2018-11-04T09:43:32.566Z,8.74
2018-11-04T09:46:00.060Z,8.79
2018-11-04T09:48:27.433Z,8.71
2018-11-04T09:50:55.287Z,8.69
2018-11-04T09:53:22.756Z,8.75
2018-11-04T09:55:50.186Z,8.77
2018-11-04T09:58:17.636Z,8.76
2018-11-04T10:00:45.132Z,8.75
2018-11-04T10:03:12.614Z,8.77
2018-11-04T10:05:40.077Z,8.62
2018-11-04T10:08:07.609Z,8.68
2018-11-04T10:10:35.069Z,8.75
2018-11-04T10:13:02.556Z,8.76
2018-11-04T10:15:30.099Z,8.79
2018-11-04T10:17:58.129Z,8.80
2018-11-04T10:20:25.860Z,8.86
2018-11-04T10:22:53.134Z,8.92
2018-11-04T10:25:39.153Z,8.90
2018-11-04T10:28:06.625Z,8.93
2018-11-04T10:30:34.128Z,8.96
2018-11-04T10:33:01.633Z,8.90
2018-11-04T10:35:29.157Z,8.89
2018-11-04T10:37:56.495Z,8.89
2018-11-04T10:40:23.981Z,8.92
2018-11-04T10:42:51.385Z,8.95
2018-11-04T10:45:18.920Z,8.98
2018-11-04T10:47:46.408Z,9.01
2018-11-04T10:50:13.975Z,9.03
2018-11-04T10:52:41.500Z,9.03
2018-11-04T10:55:10.030Z,9.05
2018-11-04T10:57:37.635Z,9.06
2018-11-04T11:00:11.942Z,9.09
2018-11-04T11:02:39.453Z,9.07
2018-11-04T11:05:06.844Z,9.07
2018-11-04T11:07:34.290Z,9.08
2018-11-04T11:10:01.702Z,9.04
2018-11-04T11:12:29.153Z,9.00
2018-11-04T11:14:57.351Z,8.99
2018-11-04T11:17:25.733Z,9.01
2018-11-04T11:19:54.170Z,9.01
2018-11-04T11:22:21.937Z,9.00
2018-11-04T11:25:08.754Z,8.98
2018-11-04T11:27:36.620Z,9.02
2018-11-04T11:30:04.261Z,9.04
2018-11-04T11:32:31.855Z,9.06
2018-11-04T11:34:59.398Z,9.06
2018-11-04T11:37:26.931Z,9.08
2018-11-04T11:39:54.337Z,9.09
2018-11-04T11:42:21.905Z,9.14
2018-11-04T11:44:49.388Z,9.20
2018-11-04T11:47:16.797Z,9.25
2018-11-04T11:49:44.150Z,9.31
2018-11-04T11:52:11.684Z,9.32
2018-11-04T11:54:39.666Z,9.37
2018-11-04T11:57:07.043Z,9.37
2018-11-04T11:59:34.642Z,9.40
2018-11-04T12:02:02.258Z,9.45
2018-11-04T12:04:29.689Z,9.46
2018-11-04T12:06:57.192Z,9.50
2018-11-04T12:09:24.607Z,9.52
2018-11-04T12:11:53.506Z,9.51
2018-11-04T12:14:20.949Z,9.48
2018-11-04T12:16:48.354Z,9.48
2018-11-04T12:19:15.772Z,9.45
2018-11-04T12:21:43.272Z,9.44
2018-11-04T12:24:10.728Z,9.46
2018-11-04T12:26:39.028Z,9.45
2018-11-04T12:29:07.846Z,9.45
2018-11-04T12:31:35.563Z,9.44
2018-11-04T12:34:03.327Z,9.46
2018-11-04T12:36:30.995Z,9.47
2018-11-04T12:38:58.845Z,9.43
2018-11-04T12:41:26.468Z,9.43
2018-11-04T12:43:55.297Z,9.45
2018-11-04T12:46:23.567Z,9.45
2018-11-04T12:48:51.371Z,9.41
2018-11-04T12:51:19.040Z,9.41
2018-11-04T12:53:47.174Z,9.39
2018-11-04T12:56:17.540Z,9.40
2018-11-04T12:58:47.681Z,9.41
2018-11-04T13:01:17.221Z,9.40
2018-11-04T13:03:46.161Z,9.42
2018-11-04T13:06:14.629Z,9.46
2018-11-04T13:08:43.375Z,9.49
2018-11-04T13:11:11.824Z,9.46
2018-11-04T13:13:40.107Z,9.50
2018-11-04T13:16:12.616Z,9.50
2018-11-04T13:18:40.977Z,9.47
2018-11-04T13:21:09.103Z,9.45
2018-11-04T13:23:36.767Z,9.43
2018-11-04T13:26:04.879Z,9.45
2018-11-04T13:28:32.649Z,9.45
2018-11-04T13:31:01.125Z,9.44
2018-11-04T13:33:29.277Z,9.48
2018-11-04T13:35:57.335Z,9.47
2018-11-04T13:38:25.681Z,9.50
2018-11-04T13:40:53.859Z,9.49
2018-11-04T13:43:21.669Z,9.53
2018-11-04T13:45:49.564Z,9.51
2018-11-04T13:48:17.530Z,9.48
2018-11-04T13:50:45.283Z,9.48
2018-11-04T13:53:12.858Z,9.44
2018-11-04T13:55:40.382Z,9.43
2018-11-04T13:58:07.804Z,9.45
2018-11-04T14:00:35.233Z,9.45
2018-11-04T14:03:02.880Z,9.46
2018-11-04T14:05:30.341Z,9.45
2018-11-04T14:07:57.743Z,9.48
2018-11-04T14:10:25.251Z,9.47
2018-11-04T14:12:52.890Z,9.46
2018-11-04T14:15:20.314Z,9.50
2018-11-04T14:17:47.784Z,9.48
2018-11-04T14:20:15.221Z,9.48
2018-11-04T14:22:42.701Z,9.50
2018-11-04T14:25:11.217Z,9.51
2018-11-04T14:27:39.038Z,9.51
2018-11-04T14:30:09.358Z,9.52
2018-11-04T14:32:37.065Z,9.56
2018-11-04T14:35:05.933Z,9.57
2018-11-04T14:37:33.470Z,9.57
2018-11-04T14:40:01.012Z,9.54
2018-11-04T14:42:28.553Z,9.55
2018-11-04T14:44:56.128Z,9.54
2018-11-04T14:47:23.682Z,9.52
2018-11-04T14:49:51.047Z,9.54
2018-11-04T14:52:18.564Z,9.55
2018-11-04T14:54:46.235Z,9.54
2018-11-04T14:57:13.977Z,9.54
2018-11-04T14:59:42.121Z,9.57
2018-11-04T15:02:09.591Z,9.56
2018-11-04T15:04:37.447Z,9.56
2018-11-04T15:07:05.419Z,9.52
2018-11-04T15:09:32.927Z,9.49
2018-11-04T15:12:00.394Z,9.48
2018-11-04T15:14:27.873Z,9.50
2018-11-04T15:16:55.335Z,9.50
2018-11-04T15:19:23.801Z,9.49
2018-11-04T15:21:52.730Z,9.47
2018-11-04T15:24:20.219Z,9.47
2018-11-04T15:26:48.006Z,9.46
2018-11-04T15:29:15.612Z,9.44
2018-11-04T15:31:43.175Z,9.44
2018-11-04T15:34:10.705Z,9.45
2018-11-04T15:36:38.304Z,9.43
2018-11-04T15:39:07.932Z,9.44
2018-11-04T15:41:35.480Z,9.43
2018-11-04T15:44:03.005Z,9.41
2018-11-04T15:46:30.309Z,9.41
2018-11-04T15:48:57.802Z,9.39
2018-11-04T15:51:25.068Z,9.37
2018-11-04T15:53:52.392Z,9.37
2018-11-04T15:56:19.739Z,9.36
2018-11-04T15:58:47.068Z,9.35
2018-11-04T16:01:14.342Z,9.36
2018-11-04T16:03:41.613Z,9.34
2018-11-04T16:06:08.930Z,9.32
2018-11-04T16:08:36.174Z,9.31
2018-11-04T16:11:03.512Z,9.31
2018-11-04T16:13:30.875Z,9.31
2018-11-04T16:15:58.219Z,9.30
2018-11-04T16:18:25.494Z,9.32
2018-11-04T16:20:52.773Z,9.32
2018-11-04T16:23:20.030Z,9.32
2018-11-04T16:25:47.354Z,9.31
2018-11-04T16:28:14.680Z,9.32
2018-11-04T16:30:41.996Z,9.31
2018-11-04T16:33:09.343Z,9.32
2018-11-04T16:35:36.658Z,9.30
2018-11-04T16:38:04.039Z,9.32
2018-11-04T16:40:31.355Z,9.29
2018-11-04T16:42:58.750Z,9.30
2018-11-04T16:45:26.014Z,9.26
2018-11-04T16:47:53.267Z,9.28
2018-11-04T16:50:20.607Z,9.29
2018-11-04T16:52:47.845Z,9.30
2018-11-04T16:55:15.155Z,9.30
2018-11-04T16:57:42.948Z,9.34
2018-11-04T17:00:10.995Z,9.34
2018-11-04T17:02:38.598Z,9.42
2018-11-04T17:10:51.300Z,9.82
2018-11-04T17:13:18.675Z,9.81
2018-11-04T17:15:46.754Z,9.73
2018-11-04T17:18:14.014Z,9.65
2018-11-04T17:20:41.427Z,9.65
2018-11-04T17:23:08.740Z,9.72
2018-11-04T17:25:36.039Z,9.82
2018-11-04T17:28:04.204Z,9.90
2018-11-04T17:30:31.563Z,9.93
2018-11-04T17:32:59.771Z,9.96
2018-11-04T17:35:27.170Z,9.91
2018-11-04T17:37:55.756Z,9.78
2018-11-04T17:40:23.380Z,9.75
2018-11-04T17:42:50.767Z,9.69
2018-11-04T17:45:18.180Z,9.63
2018-11-04T17:47:46.280Z,9.59
2018-11-04T17:50:16.054Z,9.60
2018-11-04T17:52:43.904Z,9.56
2018-11-04T17:55:11.307Z,9.50
2018-11-04T17:57:39.165Z,9.50
2018-11-04T18:00:07.863Z,9.57
2018-11-04T18:02:35.117Z,9.58
2018-11-04T18:05:02.467Z,9.63
2018-11-04T18:07:29.928Z,9.66
2018-11-04T18:09:57.300Z,9.63
2018-11-04T18:12:24.848Z,9.64
2018-11-04T18:14:52.271Z,9.61
2018-11-04T18:17:19.826Z,9.62
2018-11-04T18:19:47.300Z,9.63
2018-11-04T18:22:14.751Z,9.65
2018-11-04T18:24:46.680Z,9.60
2018-11-04T18:27:27.115Z,9.60
2018-11-04T18:29:54.503Z,9.60
2018-11-04T18:32:23.183Z,9.57
2018-11-04T18:34:50.649Z,9.51
2018-11-04T18:37:17.960Z,9.51
2018-11-04T18:39:45.272Z,9.54
2018-11-04T18:42:13.391Z,9.55
2018-11-04T18:44:40.970Z,9.53
2018-11-04T18:47:08.243Z,9.56
2018-11-04T18:49:35.526Z,9.59
2018-11-04T18:52:03.241Z,9.60
2018-11-04T18:54:30.580Z,9.64
2018-11-04T18:56:58.019Z,9.66
2018-11-04T18:59:25.364Z,9.67
2018-11-04T19:01:53.943Z,9.66
2018-11-04T19:04:21.863Z,9.61
2018-11-04T19:06:49.425Z,9.60
2018-11-04T19:09:17.359Z,9.57
2018-11-04T19:11:44.818Z,9.55
2018-11-04T19:14:12.221Z,9.53
2018-11-04T19:16:51.942Z,9.50
2018-11-04T19:19:19.586Z,9.47
2018-11-04T19:21:48.746Z,9.45
2018-11-04T19:24:16.502Z,9.47
2018-11-04T19:26:44.206Z,9.43
2018-11-04T19:29:13.628Z,9.45
2018-11-04T19:31:42.162Z,9.45
2018-11-04T19:34:10.961Z,9.43
2018-11-04T19:36:38.846Z,9.42
2018-11-04T19:39:08.517Z,9.42
2018-11-04T19:41:36.426Z,9.41
2018-11-04T19:44:09.374Z,9.42
2018-11-04T19:46:38.809Z,9.43
2018-11-04T19:49:10.992Z,9.42
2018-11-04T19:51:45.318Z,9.43
2018-11-04T19:54:14.258Z,9.44
2018-11-04T19:56:43.132Z,9.44
2018-11-04T19:59:12.112Z,9.48
2018-11-04T20:01:41.237Z,9.49
2018-11-04T20:04:10.807Z,9.47
2018-11-04T20:06:39.104Z,9.46
2018-11-04T20:09:14.232Z,9.42
2018-11-04T20:11:46.013Z,9.40
2018-11-04T20:14:22.880Z,9.42
2018-11-04T20:16:51.835Z,9.41
2018-11-04T20:19:26.159Z,9.44
2018-11-04T20:21:55.316Z,9.44
2018-11-04T20:24:29.495Z,9.45
2018-11-04T20:26:57.655Z,9.46
2018-11-04T20:29:28.176Z,9.47
2018-11-04T20:32:02.364Z,9.50
2018-11-04T20:34:33.632Z,9.47
2018-11-04T20:37:01.820Z,9.48
2018-11-04T20:39:34.865Z,9.47
2018-11-04T20:42:03.471Z,9.46
2018-11-04T20:44:33.948Z,9.45
2018-11-04T20:47:03.286Z,9.44
2018-11-04T20:49:36.843Z,9.48
2018-11-04T20:52:06.570Z,9.48
2018-11-04T20:54:35.710Z,9.49
2018-11-04T20:57:09.903Z,9.48
2018-11-04T20:59:40.612Z,9.50
2018-11-04T21:02:08.530Z,9.49
2018-11-04T21:04:36.302Z,9.49
2018-11-04T21:07:03.934Z,9.50
2018-11-04T21:09:31.690Z,9.49
2018-11-04T21:11:59.708Z,9.49
2018-11-04T21:14:27.241Z,9.51
2018-11-04T21:16:55.015Z,9.51
2018-11-04T21:19:22.601Z,9.50
2018-11-04T21:21:50.143Z,9.53
2018-11-04T21:24:17.438Z,9.62
2018-11-04T21:26:45.070Z,9.67
2018-11-04T21:29:12.519Z,9.75
2018-11-04T21:31:39.673Z,9.84
2018-11-04T21:34:07.016Z,9.89
2018-11-04T21:36:34.407Z,9.89
2018-11-04T21:39:01.867Z,9.88
2018-11-04T21:41:29.326Z,9.84
2018-11-04T21:43:56.854Z,9.83
2018-11-04T21:46:24.020Z,9.83
2018-11-04T21:48:51.915Z,9.84
2018-11-04T21:51:19.255Z,9.86
2018-11-04T21:53:46.599Z,9.85
2018-11-04T21:56:14.031Z,9.86
2018-11-04T21:58:41.300Z,9.88
2018-11-04T22:01:08.641Z,9.86
2018-11-04T22:03:35.962Z,9.88
2018-11-04T22:06:03.426Z,9.90
2018-11-04T22:08:31.328Z,9.88
2018-11-04T22:10:59.151Z,9.87
2018-11-04T22:13:26.443Z,9.87
2018-11-04T22:15:53.709Z,9.84
2018-11-04T22:18:20.979Z,9.86
2018-11-04T22:20:48.261Z,9.84
2018-11-04T22:23:15.495Z,9.84
2018-11-04T22:25:42.760Z,9.83
2018-11-04T22:28:10.395Z,9.84
2018-11-04T22:30:37.735Z,9.81
2018-11-04T22:33:05.006Z,9.78
2018-11-04T22:35:32.264Z,9.76
2018-11-04T22:37:59.505Z,9.80
2018-11-04T22:40:26.809Z,9.80
2018-11-04T22:42:54.101Z,9.77
2018-11-04T22:45:21.372Z,9.77
2018-11-04T22:47:48.651Z,9.75
2018-11-04T22:50:16.064Z,9.73
2018-11-04T22:52:43.808Z,9.72
2018-11-04T22:55:11.981Z,9.74
2018-11-04T22:57:39.248Z,9.74
2018-11-04T23:00:13.040Z,9.71
2018-11-04T23:02:40.296Z,9.69
2018-11-04T23:05:13.349Z,9.67
2018-11-04T23:07:40.623Z,9.67
2018-11-04T23:10:08.029Z,9.67
2018-11-04T23:12:35.259Z,9.70
2018-11-04T23:15:02.538Z,9.69
2018-11-04T23:17:29.808Z,9.71
2018-11-04T23:19:57.144Z,9.74
2018-11-04T23:22:24.396Z,9.75
2018-11-04T23:24:51.747Z,9.76
2018-11-04T23:27:19.066Z,9.75
2018-11-04T23:29:46.373Z,9.76
2018-11-04T23:32:13.678Z,9.77
2018-11-04T23:34:40.997Z,9.79
2018-11-04T23:37:09.057Z,9.81
2018-11-04T23:39:36.355Z,9.79
2018-11-04T23:42:03.822Z,9.76
2018-11-04T23:44:31.133Z,9.74
2018-11-04T23:46:58.399Z,9.72
2018-11-04T23:49:25.716Z,9.69
2018-11-04T23:51:53.018Z,9.68
2018-11-04T23:54:20.270Z,9.66
2018-11-04T23:56:47.583Z,9.62
2018-11-04T23:59:14.872Z,9.64
